Time;durP1;ratioP1;P1;durP2;ratioP2;P2;SDS_P1;SDS_P2;PMS_P1;PMS_P2;Temp;Humidity;BMP_temperature;BMP_pressure;BME280_temperature;BME280_humidity;BME280_pressure;Samples;Min_cycle;Max_cycle;Signal;HPM_P1;HPM_P2
2021/03/30 00:00:21;;;;;;;2.83;1.73;;;;;;;26.41;26.24;98069.22;5065371;28;20500;-24
2021/03/30 00:02:46;;;;;;;4.10;1.92;;;;;;;26.40;26.19;98064.88;5069114;28;20016;-26
2021/03/30 00:05:12;;;;;;;3.03;1.80;;;;;;;26.40;26.13;98062.25;5070170;28;20294;-27
2021/03/30 00:07:38;;;;;;;2.45;1.70;;;;;;;26.40;26.26;98067.50;5071352;28;20152;-28
2021/03/30 00:10:04;;;;;;;2.95;1.60;;;;;;;26.39;26.35;98066.63;5067053;28;20031;-26
2021/03/30 00:12:30;;;;;;;3.97;1.70;;;;;;;26.38;26.33;98056.19;5068329;28;20036;-26
2021/03/30 00:14:55;;;;;;;3.85;1.73;;;;;;;26.40;26.25;98062.25;5071491;28;20028;-27
2021/03/30 00:17:21;;;;;;;4.18;2.00;;;;;;;26.39;26.26;98055.28;5070788;28;20024;-26
2021/03/30 00:19:46;;;;;;;6.32;1.58;;;;;;;26.39;26.24;98050.88;5066701;28;20021;-26
2021/03/30 00:22:11;;;;;;;4.63;1.83;;;;;;;26.39;26.19;98050.03;5068730;28;20020;-25
2021/03/30 00:24:37;;;;;;;2.58;1.65;;;;;;;26.40;26.15;98049.09;5068186;28;20039;-27
2021/03/30 00:27:02;;;;;;;2.65;1.48;;;;;;;26.38;26.33;98054.41;5071187;28;20032;-27
2021/03/30 00:29:28;;;;;;;3.65;1.65;;;;;;;26.38;26.38;98045.69;5068311;28;20027;-27
2021/03/30 00:31:53;;;;;;;4.38;1.65;;;;;;;26.38;26.26;98043.06;5076098;28;20035;-27
2021/03/30 00:34:19;;;;;;;2.95;1.67;;;;;;;26.38;26.19;98035.19;5067382;28;20036;-28
2021/03/30 00:36:44;;;;;;;2.55;1.67;;;;;;;26.37;26.21;98036.06;5066505;28;20074;-27
2021/03/30 00:39:09;;;;;;;3.13;1.50;;;;;;;26.37;26.28;98038.69;5066836;28;20085;-24
2021/03/30 00:41:39;;;;;;;3.10;1.65;;;;;;;26.37;26.35;98036.94;5070324;28;20012;-30
2021/03/30 00:44:11;;;;;;;5.50;1.48;;;;;;;26.37;26.33;98038.69;5063045;28;20160;-28
2021/03/30 00:46:37;;;;;;;3.20;1.65;;;;;;;26.37;26.20;98036.06;5068358;28;20559;-29
2021/03/30 00:49:03;;;;;;;2.20;1.45;;;;;;;26.36;26.29;98040.47;5063772;28;20031;-30
2021/03/30 00:51:28;;;;;;;4.88;1.70;;;;;;;26.37;26.27;98033.44;5051080;28;20046;-27
2021/03/30 00:53:54;;;;;;;3.55;1.77;;;;;;;26.37;26.35;98036.94;5075704;28;20039;-28
2021/03/30 00:56:19;;;;;;;2.50;1.40;;;;;;;26.37;26.32;98030.81;5069417;28;20020;-30
2021/03/30 00:58:44;;;;;;;3.13;1.50;;;;;;;26.35;26.27;98042.25;5066683;28;20058;-29
2021/03/30 01:01:10;;;;;;;4.63;1.25;;;;;;;26.35;26.36;98034.34;5069058;28;20116;-28
2021/03/30 01:03:35;;;;;;;2.97;1.40;;;;;;;26.35;26.22;98038.75;5069153;28;20035;-29
2021/03/30 01:06:01;;;;;;;5.18;1.73;;;;;;;26.34;26.32;98032.66;5070765;28;20027;-26
2021/03/30 01:08:38;;;;;;;5.57;1.70;;;;;;;26.33;26.33;98030.94;5069229;28;20025;-25
2021/03/30 01:11:15;;;;;;;4.65;1.45;;;;;;;26.34;26.23;98029.16;5066617;28;20124;-24
2021/03/30 01:13:41;;;;;;;4.15;1.45;;;;;;;26.33;26.34;98030.94;5067045;28;20157;-28
2021/03/30 01:16:11;;;;;;;4.82;1.50;;;;;;;26.33;26.31;98038.81;5067467;28;20709;-27
2021/03/30 01:18:42;;;;;;;2.13;1.50;;;;;;;26.34;26.20;98031.78;5062387;28;20395;-30
2021/03/30 01:21:31;;;;;;;1.92;1.15;;;;;;;26.33;26.09;98041.44;5066922;28;20047;-26
2021/03/30 01:24:04;;;;;;;2.80;1.48;;;;;;;26.33;26.23;98030.94;5069870;28;20031;-30
2021/03/30 01:26:39;;;;;;;3.42;1.58;;;;;;;26.32;26.21;98026.56;5068939;28;20044;-25
2021/03/30 01:29:11;;;;;;;3.83;1.58;;;;;;;26.32;26.29;98029.19;5061153;28;20107;-27
2021/03/30 01:31:36;;;;;;;2.42;1.35;;;;;;;26.31;26.18;98024.88;5069004;28;20045;-26
2021/03/30 01:34:02;;;;;;;1.45;1.30;;;;;;;26.27;26.36;98020.63;5049838;28;20024;-29
2021/03/30 01:36:28;;;;;;;2.85;1.58;;;;;;;26.30;26.27;98025.78;5068466;28;20035;-27
2021/03/30 01:38:54;;;;;;;2.58;1.30;;;;;;;26.29;26.21;98029.34;5065706;28;20115;-27
2021/03/30 01:41:21;;;;;;;3.22;1.40;;;;;;;26.31;26.18;98031.91;5064740;28;20097;-27
2021/03/30 01:43:46;;;;;;;1.98;1.20;;;;;;;26.30;26.25;98025.78;5064001;28;20031;-26
2021/03/30 01:46:12;;;;;;;2.05;1.40;;;;;;;26.30;26.31;98031.03;5070304;28;20032;-29
2021/03/30 01:48:38;;;;;;;1.95;1.30;;;;;;;26.31;26.29;98029.28;5061366;28;20063;-27
2021/03/30 01:51:03;;;;;;;4.07;1.25;;;;;;;26.30;26.30;98024.91;5067314;28;20035;-25
2021/03/30 01:53:29;;;;;;;2.25;1.30;;;;;;;26.30;26.27;98027.53;5052317;28;20032;-28
2021/03/30 01:55:54;;;;;;;2.45;1.25;;;;;;;26.30;26.27;98024.91;5065878;28;20040;-28
2021/03/30 01:58:23;;;;;;;3.00;1.40;;;;;;;26.30;26.21;98030.16;5061781;28;20135;-28
2021/03/30 02:00:48;;;;;;;3.13;1.38;;;;;;;26.30;26.27;98031.03;5062715;28;20384;-28
2021/03/30 02:03:14;;;;;;;3.00;1.60;;;;;;;26.28;26.23;98024.97;5062253;28;20024;-27
2021/03/30 02:05:40;;;;;;;1.50;1.00;;;;;;;26.29;26.14;98029.34;5064697;28;20115;-27
2021/03/30 02:08:05;;;;;;;8.98;1.92;;;;;;;26.30;26.24;98031.03;5054960;28;20621;-27
2021/03/30 02:10:36;;;;;;;5.07;2.00;;;;;;;26.27;26.13;98020.63;5051304;28;20030;-27
2021/03/30 02:13:03;;;;;;;1.73;1.00;;;;;;;26.28;26.22;98017.09;5067781;28;20024;-28
2021/03/30 02:15:28;;;;;;;3.97;1.27;;;;;;;26.23;26.18;98016.38;5062218;28;20030;-29
2021/03/30 02:18:02;;;;;;;1.95;1.33;;;;;;;26.27;26.35;98017.16;5070447;28;20036;-29
2021/03/30 02:20:30;;;;;;;2.47;1.15;;;;;;;26.26;26.46;98012.78;5065866;28;20028;-30
2021/03/30 02:23:07;;;;;;;1.90;1.05;;;;;;;26.26;26.38;98013.66;5049147;28;20034;-26
2021/03/30 02:25:33;;;;;;;3.08;1.30;;;;;;;26.26;26.48;98018.06;5067161;28;20033;-29
2021/03/30 02:28:03;;;;;;;2.38;1.30;;;;;;;26.27;26.38;98015.38;5045711;28;20040;-28
2021/03/30 02:30:28;;;;;;;1.92;1.30;;;;;;;26.26;26.63;98008.41;5069642;28;20082;-30
2021/03/30 02:32:53;;;;;;;1.95;1.30;;;;;;;26.25;26.21;98017.19;5048266;28;20426;-25
2021/03/30 02:35:19;;;;;;;3.50;1.40;;;;;;;26.26;26.35;98015.41;5072663;28;20036;-28
2021/03/30 02:37:45;;;;;;;2.42;1.23;;;;;;;26.26;26.21;98011.03;5064271;28;20093;-27
2021/03/30 02:40:13;;;;;;;2.10;1.13;;;;;;;26.25;26.26;98011.94;5051086;28;20101;-27
2021/03/30 02:42:42;;;;;;;3.50;1.20;;;;;;;26.25;26.37;98006.66;5067781;28;20047;-27
2021/03/30 02:45:11;;;;;;;1.80;1.20;;;;;;;26.26;26.26;98002.28;5064335;28;20442;-28
2021/03/30 02:47:36;;;;;;;2.53;1.40;;;;;;;26.26;26.40;98005.78;5071189;28;20036;-29
2021/03/30 02:50:02;;;;;;;2.97;1.20;;;;;;;26.25;26.17;98011.94;5064824;28;20104;-28
2021/03/30 02:52:28;;;;;;;1.75;1.30;;;;;;;26.24;26.31;98004.97;5069502;28;20027;-25
2021/03/30 02:54:54;;;;;;;2.50;1.23;;;;;;;26.25;26.37;98016.31;5070162;28;20414;-28
2021/03/30 02:57:19;;;;;;;4.75;1.23;;;;;;;26.25;26.28;98014.56;5065167;28;20612;-26
2021/03/30 02:59:45;;;;;;;2.28;1.15;;;;;;;26.26;26.42;98012.78;5062549;28;20024;-27
2021/03/30 03:02:12;;;;;;;1.52;0.98;;;;;;;26.25;26.37;98017.19;5062983;28;20029;-29
2021/03/30 03:04:37;;;;;;;2.15;1.10;;;;;;;26.23;26.39;98019.00;5067491;28;20151;-27
2021/03/30 03:07:03;;;;;;;2.30;0.93;;;;;;;26.25;26.26;98016.31;5064797;28;20436;-27
2021/03/30 03:09:29;;;;;;;2.58;0.90;;;;;;;26.23;26.32;98019.00;5048180;28;20774;-26
2021/03/30 03:11:54;;;;;;;1.75;1.10;;;;;;;26.25;26.24;98016.31;5071316;28;20263;-25
2021/03/30 03:14:20;;;;;;;2.17;1.13;;;;;;;26.23;26.35;98025.13;5042934;28;20031;-27
2021/03/30 03:16:45;;;;;;;3.13;1.08;;;;;;;26.24;26.31;98028.59;5072854;28;20028;-28
2021/03/30 03:19:11;;;;;;;3.33;1.20;;;;;;;26.23;26.32;98024.25;5050295;28;20879;-31
2021/03/30 03:21:37;;;;;;;1.50;1.00;;;;;;;26.22;26.43;98026.03;5061368;28;20677;-28
2021/03/30 03:24:03;;;;;;;1.77;1.02;;;;;;;26.22;26.30;98025.16;5037702;28;20032;-28
2021/03/30 03:26:30;;;;;;;1.38;1.05;;;;;;;26.23;26.37;98026.88;5074299;28;20120;-27
2021/03/30 03:28:56;;;;;;;1.80;1.08;;;;;;;26.21;26.38;98019.03;5066761;28;20028;-26
2021/03/30 03:31:28;;;;;;;3.53;1.25;;;;;;;26.21;26.23;98026.91;5070322;28;20519;-27
2021/03/30 03:33:55;;;;;;;2.42;1.17;;;;;;;26.21;26.42;98020.81;5072232;28;20044;-28
2021/03/30 03:36:20;;;;;;;3.38;1.13;;;;;;;26.22;26.32;98027.78;5063047;28;20032;-28
2021/03/30 03:38:46;;;;;;;3.05;0.90;;;;;;;26.21;26.29;98026.91;5061268;28;20669;-24
2021/03/30 03:41:15;;;;;;;1.10;0.90;;;;;;;26.20;26.42;98024.38;5068608;28;20028;-26
2021/03/30 03:43:41;;;;;;;2.20;1.05;;;;;;;26.19;26.47;98018.25;5066879;28;20481;-27
2021/03/30 03:46:06;;;;;;;1.00;0.80;;;;;;;26.20;26.42;98019.13;5070776;28;20020;-28
2021/03/30 03:48:32;;;;;;;1.67;1.30;;;;;;;26.20;26.39;98019.13;5063767;28;20036;-26
2021/03/30 03:51:01;;;;;;;1.75;0.85;;;;;;;26.20;26.49;98027.00;5069084;28;20551;-28
2021/03/30 03:53:28;;;;;;;2.67;1.20;;;;;;;26.19;26.50;98022.63;5074015;28;20024;-26
2021/03/30 03:55:54;;;;;;;3.03;0.98;;;;;;;26.19;26.50;98025.25;5074237;28;20495;-25
2021/03/30 03:58:23;;;;;;;1.48;1.08;;;;;;;26.18;26.37;98026.19;5064854;28;20055;-28
2021/03/30 04:00:48;;;;;;;2.55;0.90;;;;;;;26.18;26.50;98026.19;5066286;28;20579;-28
2021/03/30 04:03:23;;;;;;;2.25;1.05;;;;;;;26.18;26.46;98029.69;5066848;28;20234;-28
2021/03/30 04:06:10;;;;;;;1.30;1.00;;;;;;;26.17;26.46;98030.59;5054894;28;20040;-27
2021/03/30 04:08:35;;;;;;;1.65;0.98;;;;;;;26.18;26.33;98031.44;5071153;28;20190;-28
2021/03/30 04:11:03;;;;;;;1.52;0.88;;;;;;;26.17;26.20;98030.59;5070104;28;20603;-27
2021/03/30 04:13:31;;;;;;;1.10;1.00;;;;;;;26.17;26.46;98029.72;5069552;28;20078;-26
2021/03/30 04:16:03;;;;;;;1.52;0.77;;;;;;;26.17;26.41;98032.34;5068759;28;20023;-27
2021/03/30 04:18:33;;;;;;;1.63;1.10;;;;;;;26.16;26.47;98030.66;5069907;28;20036;-28
2021/03/30 04:21:02;;;;;;;2.15;1.10;;;;;;;26.16;26.55;98028.03;5069724;28;20020;-27
2021/03/30 04:23:28;;;;;;;1.83;0.90;;;;;;;26.16;26.44;98028.03;5083266;27;20028;-27
2021/03/30 04:25:53;;;;;;;1.25;0.90;;;;;;;26.16;26.52;98025.41;5068150;28;20427;-27
2021/03/30 04:28:19;;;;;;;2.47;1.20;;;;;;;26.16;26.41;98035.91;5068032;28;20077;-26
2021/03/30 04:30:44;;;;;;;1.10;0.80;;;;;;;26.16;26.39;98033.28;5083445;27;20031;-27
2021/03/30 04:33:10;;;;;;;1.38;0.95;;;;;;;26.15;26.36;98036.78;5069301;28;20044;-27
2021/03/30 04:35:36;;;;;;;2.42;0.90;;;;;;;26.15;26.40;98036.78;5071209;28;20435;-27
2021/03/30 04:38:01;;;;;;;1.67;0.90;;;;;;;26.10;26.53;98029.91;5073841;28;20539;-25
2021/03/30 04:40:26;;;;;;;1.08;0.80;;;;;;;26.13;26.39;98031.63;5071441;28;20035;-28
2021/03/30 04:42:52;;;;;;;0.85;0.75;;;;;;;26.13;26.10;98033.38;5069671;28;20024;-25
2021/03/30 04:45:17;;;;;;;1.38;0.90;;;;;;;26.13;26.42;98036.88;5064311;28;20036;-27
2021/03/30 04:47:43;;;;;;;1.73;0.93;;;;;;;26.14;26.48;98032.44;5069135;28;20036;-29
2021/03/30 04:50:08;;;;;;;1.80;0.73;;;;;;;26.14;26.55;98037.72;5065668;28;20040;-27
2021/03/30 04:52:35;;;;;;;1.27;1.08;;;;;;;26.14;26.38;98040.34;5065056;28;20086;-28
2021/03/30 04:55:00;;;;;;;1.45;0.90;;;;;;;26.13;26.57;98043.88;5066567;28;20036;-29
2021/03/30 04:57:26;;;;;;;2.20;0.90;;;;;;;26.12;26.61;98036.91;5063059;28;20551;-25
2021/03/30 04:59:51;;;;;;;1.00;0.90;;;;;;;26.13;26.53;98041.25;5065088;28;20336;-29
2021/03/30 05:02:16;;;;;;;3.63;0.82;;;;;;;26.13;26.35;98041.25;5068012;28;20704;-28
2021/03/30 05:04:42;;;;;;;1.30;0.77;;;;;;;26.12;26.43;98047.44;5064318;28;20031;-29
2021/03/30 05:07:07;;;;;;;0.82;0.80;;;;;;;26.12;26.53;98052.69;5068157;28;20093;-27
2021/03/30 05:09:33;;;;;;;1.25;0.90;;;;;;;26.11;26.41;98041.31;5065043;28;20024;-25
2021/03/30 05:11:58;;;;;;;0.77;0.70;;;;;;;26.10;26.44;98045.69;5068753;28;20032;-28
2021/03/30 05:14:23;;;;;;;1.00;0.68;;;;;;;26.10;26.53;98047.47;5065539;28;20025;-27
2021/03/30 05:16:49;;;;;;;3.00;1.00;;;;;;;26.09;26.57;98054.47;5068522;28;20024;-26
2021/03/30 05:19:16;;;;;;;1.15;0.73;;;;;;;26.10;26.46;98055.34;5067250;28;20048;-25
2021/03/30 05:21:42;;;;;;;1.00;0.85;;;;;;;26.09;26.56;98054.47;5068751;28;20237;-27
2021/03/30 05:24:08;;;;;;;1.25;0.70;;;;;;;26.09;26.67;98043.97;5074292;28;20032;-28
2021/03/30 05:26:33;;;;;;;1.30;1.00;;;;;;;26.10;26.74;98042.22;5067210;28;20726;-29
2021/03/30 05:28:59;;;;;;;0.98;0.80;;;;;;;26.09;26.63;98043.13;5064476;28;20035;-27
2021/03/30 05:31:24;;;;;;;1.75;1.00;;;;;;;26.08;26.65;98047.53;5063988;28;20019;-27
2021/03/30 05:33:49;;;;;;;1.73;0.93;;;;;;;26.09;26.48;98043.13;5067750;28;20037;-25
2021/03/30 05:36:15;;;;;;;1.35;0.93;;;;;;;26.08;26.60;98042.28;5064719;28;20017;-27
2021/03/30 05:38:40;;;;;;;1.00;0.60;;;;;;;26.09;26.45;98046.59;5064515;28;20781;-29
2021/03/30 05:41:06;;;;;;;1.15;0.85;;;;;;;26.08;26.57;98047.53;5069111;28;20037;-25
2021/03/30 05:43:32;;;;;;;2.40;0.80;;;;;;;26.08;26.41;98050.16;5066857;28;22258;-25
2021/03/30 05:46:01;;;;;;;1.17;0.60;;;;;;;26.08;26.59;98050.16;5067075;28;20036;-26
2021/03/30 05:48:27;;;;;;;0.68;0.50;;;;;;;26.08;26.73;98052.78;5063465;28;20039;-26
2021/03/30 05:50:52;;;;;;;1.35;0.80;;;;;;;26.08;26.49;98052.78;5066604;28;20028;-26
2021/03/30 05:53:18;;;;;;;1.50;0.80;;;;;;;26.08;26.65;98054.53;5064289;28;20055;-27
2021/03/30 05:55:46;;;;;;;0.68;0.68;;;;;;;26.07;26.54;98051.06;5063542;28;20025;-26
2021/03/30 05:58:11;;;;;;;1.80;0.75;;;;;;;26.07;26.70;98056.31;5067240;28;20442;-28
2021/03/30 06:00:44;;;;;;;1.33;0.90;;;;;;;26.07;26.56;98056.31;5069396;28;20076;-28
2021/03/30 06:03:13;;;;;;;2.63;1.00;;;;;;;26.07;26.40;98061.56;5060231;28;20020;-25
2021/03/30 06:05:38;;;;;;;1.00;0.70;;;;;;;26.06;26.43;98059.88;5052007;28;20875;-28
2021/03/30 06:08:05;;;;;;;0.98;0.85;;;;;;;26.06;26.61;98065.13;5065522;28;20040;-27
2021/03/30 06:10:34;;;;;;;1.23;0.50;;;;;;;26.07;26.47;98061.56;5068351;28;20618;-26
2021/03/30 06:13:00;;;;;;;1.15;0.80;;;;;;;26.07;26.48;98061.56;5069315;28;20024;-29
2021/03/30 06:15:30;;;;;;;1.13;0.82;;;;;;;26.07;26.57;98061.56;5064934;28;20028;-27
2021/03/30 06:17:56;;;;;;;1.20;0.60;;;;;;;26.06;26.46;98065.13;5071793;28;20714;-25
2021/03/30 06:20:35;;;;;;;1.45;0.70;;;;;;;26.01;26.61;98051.25;5062426;28;20025;-29
2021/03/30 06:23:02;;;;;;;5.75;1.33;;;;;;;26.07;26.67;98065.97;5064039;28;20020;-25
2021/03/30 06:25:43;;;;;;;2.72;1.15;;;;;;;26.06;26.51;98064.25;5063807;28;20028;-29
2021/03/30 06:28:14;;;;;;;2.67;1.00;;;;;;;26.06;26.56;98070.38;5066527;28;20052;-23
2021/03/30 06:31:00;;;;;;;;;;;;;;;26.06;26.56;98070.38;5067194;28;20032;-27
2021/03/30 06:33:26;;;;;;;12.20;3.67;;;;;;;26.05;26.21;98068.63;5055031;28;19916;-27
2021/03/30 06:35:52;;;;;;;13.55;3.83;;;;;;;26.03;25.92;98070.47;5064634;28;20062;-27
2021/03/30 06:38:17;;;;;;;5.80;3.55;;;;;;;26.01;25.27;98069.66;5064490;28;20123;-29
2021/03/30 06:40:45;;;;;;;9.60;3.35;;;;;;;25.98;25.09;98066.28;5066362;28;20503;-26
2021/03/30 06:44:24;;;;;;;14.32;4.15;;;;;;;25.94;24.85;98066.38;5062919;28;20701;-27
2021/03/30 06:46:03;;;;;;;9.85;3.00;;;;;;;25.91;24.98;98065.63;5063333;28;20477;-25
2021/03/30 06:48:28;;;;;;;5.43;2.53;;;;;;;25.83;24.72;98061.47;5046859;28;20476;-28
2021/03/30 06:50:54;;;;;;;8.52;3.30;;;;;;;25.86;24.72;98068.41;5044566;28;20041;-28
2021/03/30 06:53:22;;;;;;;5.03;2.33;;;;;;;25.85;24.60;98061.44;5062826;28;20024;-26
2021/03/30 06:55:49;;;;;;;9.40;2.80;;;;;;;25.83;24.66;98061.47;5062986;28;20028;-23
2021/03/30 06:58:16;;;;;;;4.47;2.92;;;;;;;25.82;24.53;98062.38;5063973;28;20558;-30
2021/03/30 07:00:42;;;;;;;7.28;3.20;;;;;;;25.81;24.34;98059.81;5062066;28;20031;-26
2021/03/30 07:03:10;;;;;;;7.45;3.17;;;;;;;25.80;24.25;98063.34;5058076;28;20039;-26
2021/03/30 07:05:42;;;;;;;8.20;2.83;;;;;;;25.79;24.43;98057.25;5062946;28;20024;-26
2021/03/30 07:08:10;;;;;;;7.05;2.60;;;;;;;25.78;24.11;98058.16;5061684;28;20749;-24
2021/03/30 07:10:42;;;;;;;11.23;2.63;;;;;;;25.76;24.32;98062.59;5061784;28;20035;-27
2021/03/30 07:13:09;;;;;;;6.50;2.50;;;;;;;25.77;24.37;98061.69;5064630;28;20025;-27
2021/03/30 07:15:34;;;;;;;11.05;2.92;;;;;;;25.76;24.18;98059.09;5060499;28;20060;-29
2021/03/30 07:18:09;;;;;;;8.32;2.90;;;;;;;25.76;24.09;98062.59;5061209;28;21632;-25
2021/03/30 07:20:41;;;;;;;10.65;2.97;;;;;;;25.75;24.02;98063.53;5063941;28;20051;-28
2021/03/30 07:23:08;;;;;;;9.48;2.90;;;;;;;25.75;24.18;98066.16;5062163;28;20111;-28
2021/03/30 07:25:35;;;;;;;9.00;2.97;;;;;;;25.76;23.97;98062.59;5059350;28;20108;-29
2021/03/30 07:28:04;;;;;;;5.75;3.00;;;;;;;25.75;24.12;98054.78;5068090;28;20028;-25
2021/03/30 07:30:29;;;;;;;10.35;3.03;;;;;;;25.75;24.19;98060.88;5060322;28;20161;-27
2021/03/30 07:33:13;;;;;;;8.65;2.97;;;;;;;25.76;24.16;98062.59;5060481;28;20021;-28
2021/03/30 07:35:39;;;;;;;11.15;2.88;;;;;;;25.77;24.11;98050.31;5062910;28;20598;-27
2021/03/30 07:38:17;;;;;;;9.63;2.72;;;;;;;25.76;24.07;98056.47;5060963;28;20116;-26
2021/03/30 07:40:42;;;;;;;8.77;3.00;;;;;;;25.77;24.32;98059.06;5061243;28;20034;-26
2021/03/30 07:43:09;;;;;;;10.35;2.90;;;;;;;25.79;24.26;98059.88;5061586;28;20036;-29
2021/03/30 07:45:38;;;;;;;12.40;2.78;;;;;;;25.79;24.29;98052.00;5060695;28;20426;-30
2021/03/30 07:48:04;;;;;;;11.73;3.03;;;;;;;25.80;24.27;98060.72;5062951;28;20574;-26
2021/03/30 07:50:46;;;;;;;8.25;2.90;;;;;;;25.81;24.39;98060.69;5061746;28;22043;-26
2021/03/30 07:53:47;;;;;;;18.90;3.35;;;;;;;25.80;23.41;98064.22;5070451;28;20046;-26
2021/03/30 07:56:14;;;;;;;10.15;3.55;;;;;;;25.75;23.11;98068.78;5068670;28;20052;-28
2021/03/30 07:58:43;;;;;;;8.32;3.70;;;;;;;25.67;22.29;98063.75;5062772;28;20047;-27
2021/03/30 08:01:09;;;;;;;9.50;3.55;;;;;;;25.59;22.42;98054.41;5068045;28;20071;-25
2021/03/30 08:03:36;;;;;;;11.35;3.42;;;;;;;25.50;21.90;98066.88;5069230;28;20760;-26
2021/03/30 08:06:09;;;;;;;9.25;3.30;;;;;;;25.42;21.71;98068.91;5066390;28;20289;-28
2021/03/30 08:08:45;;;;;;;9.77;3.78;;;;;;;25.35;21.55;98067.38;5072626;28;20024;-29
2021/03/30 08:11:11;;;;;;;11.90;3.80;;;;;;;25.25;20.75;98059.78;5052372;28;20785;-24
2021/03/30 08:13:47;;;;;;;7.82;3.10;;;;;;;25.18;21.02;98066.13;5071601;28;20039;-25
2021/03/30 08:16:15;;;;;;;9.23;3.53;;;;;;;25.11;21.28;98061.97;5073866;28;20546;-26
2021/03/30 08:18:41;;;;;;;17.10;3.90;;;;;;;25.04;20.89;98056.91;5059382;28;20115;-24
2021/03/30 08:21:11;;;;;;;13.68;3.70;;;;;;;25.02;20.94;98055.25;5073280;28;20028;-27
2021/03/30 08:23:51;;;;;;;7.60;3.45;;;;;;;24.98;20.55;98058.88;5071924;28;20039;-27
2021/03/30 08:26:29;;;;;;;10.60;3.35;;;;;;;24.97;21.19;98058.00;5073400;28;20054;-29
2021/03/30 08:29:15;;;;;;;10.55;3.65;;;;;;;24.96;21.07;98061.53;5074972;28;20032;-32
2021/03/30 08:31:50;;;;;;;11.60;3.67;;;;;;;24.95;20.89;98064.19;5069841;28;20077;-27
2021/03/30 08:34:22;;;;;;;10.60;3.60;;;;;;;24.96;21.10;98051.03;5071238;28;20228;-29
2021/03/30 08:36:49;;;;;;;9.43;3.28;;;;;;;24.97;21.00;98068.47;5074255;28;20024;-24
2021/03/30 08:39:17;;;;;;;17.83;4.38;;;;;;;25.01;21.09;98058.75;5072214;28;20182;-28
2021/03/30 08:41:43;;;;;;;8.82;3.92;;;;;;;25.04;21.12;98054.28;5074689;28;20032;-24
2021/03/30 08:44:23;;;;;;;10.30;4.15;;;;;;;25.10;21.09;98062.88;5072021;28;20035;-29
2021/03/30 08:46:51;;;;;;;23.08;5.60;;;;;;;25.14;21.40;98064.50;5072362;28;20488;-28
2021/03/30 08:49:22;;;;;;;20.63;5.47;;;;;;;25.19;21.66;98073.09;5071820;28;20064;-27
2021/03/30 08:51:50;;;;;;;11.52;4.05;;;;;;;25.23;21.37;98068.59;5072985;28;20294;-28
2021/03/30 08:54:15;;;;;;;13.27;4.63;;;;;;;25.28;21.35;98061.47;5073184;28;20032;-27
2021/03/30 08:56:41;;;;;;;17.10;4.93;;;;;;;25.28;21.32;98053.59;5069189;28;20039;-26
2021/03/30 08:59:07;;;;;;;13.60;4.78;;;;;;;25.36;21.39;98069.09;5042271;28;20582;-25
2021/03/30 09:01:32;;;;;;;12.70;4.50;;;;;;;25.40;21.49;98062.84;5070835;28;20282;-29
2021/03/30 09:03:58;;;;;;;11.07;4.43;;;;;;;25.43;21.46;98065.34;5069383;28;20028;-26
2021/03/30 09:06:27;;;;;;;11.15;4.32;;;;;;;25.44;21.56;98062.69;5040618;28;20037;-30
2021/03/30 09:08:53;;;;;;;9.50;3.75;;;;;;;25.48;21.88;98066.09;5052901;28;20648;-25
2021/03/30 09:11:24;;;;;;;11.02;3.97;;;;;;;25.49;22.53;98065.19;5062964;28;20036;-26
2021/03/30 09:14:08;;;;;;;8.98;3.83;;;;;;;25.49;22.83;98065.19;5056375;28;20072;-30
2021/03/30 09:16:36;;;;;;;7.07;3.40;;;;;;;25.50;21.93;98061.63;5064209;28;20096;-26
2021/03/30 09:19:21;;;;;;;7.85;3.85;;;;;;;25.53;21.56;98053.69;5030977;28;20075;-27
2021/03/30 09:21:50;;;;;;;10.45;3.53;;;;;;;25.59;21.54;98051.78;5037158;28;20055;-29
2021/03/30 09:24:42;;;;;;;7.97;3.45;;;;;;;25.66;21.80;98051.53;5064820;28;20044;-28
2021/03/30 09:27:04;;;;;;;7.68;3.25;;;;;;;25.77;22.34;98048.56;5063793;28;20032;-32
2021/03/30 09:29:31;;;;;;;11.93;3.47;;;;;;;25.89;22.67;98051.69;5069302;28;20113;-30
2021/03/30 09:31:56;;;;;;;8.55;3.30;;;;;;;25.99;22.65;98042.59;5067446;28;20024;-25
2021/03/30 09:34:24;;;;;;;6.65;3.38;;;;;;;26.13;22.54;98043.88;5058059;28;20898;-29
2021/03/30 09:36:49;;;;;;;7.00;3.30;;;;;;;26.25;22.75;98039.97;5069660;28;20095;-24
2021/03/30 09:39:22;;;;;;;9.63;2.72;;;;;;;26.37;22.54;98042.19;5070905;28;20492;-30
2021/03/30 09:41:49;;;;;;;5.53;2.50;;;;;;;26.49;22.53;98046.16;5067092;28;20019;-30
2021/03/30 09:44:15;;;;;;;7.90;2.70;;;;;;;26.59;22.41;98042.25;5054859;28;20028;-29
2021/03/30 09:46:41;;;;;;;5.35;2.80;;;;;;;26.70;22.44;98033.13;5080405;27;20050;-32
2021/03/30 09:49:08;;;;;;;7.60;2.53;;;;;;;26.80;22.42;98039.75;5063081;28;20472;-32
2021/03/30 09:51:38;;;;;;;4.07;2.40;;;;;;;26.90;21.99;98035.00;5060629;28;20119;-29
2021/03/30 09:54:20;;;;;;;4.47;2.80;;;;;;;26.99;22.21;98034.69;5063436;28;20028;-28
2021/03/30 09:56:46;;;;;;;6.85;2.75;;;;;;;27.09;22.18;98034.31;5060262;28;20070;-27
2021/03/30 09:59:17;;;;;;;5.72;2.65;;;;;;;27.14;22.06;98024.47;5045193;28;20107;-28
2021/03/30 10:01:42;;;;;;;6.75;2.55;;;;;;;27.18;22.07;98022.56;5065258;28;21106;-24
2021/03/30 10:04:07;;;;;;;10.02;2.90;;;;;;;27.21;22.03;98025.09;5054343;28;20040;-29
2021/03/30 10:06:33;;;;;;;7.07;2.40;;;;;;;27.22;21.91;98018.91;5056357;28;20048;-26
2021/03/30 10:09:05;;;;;;;5.47;2.30;;;;;;;27.22;22.07;98011.88;5061735;28;20518;-28
2021/03/30 10:11:31;;;;;;;5.93;2.60;;;;;;;27.23;22.13;98016.22;5052869;28;20043;-29
2021/03/30 10:14:15;;;;;;;6.95;2.45;;;;;;;27.21;22.03;98011.94;5049048;28;20055;-28
2021/03/30 10:16:40;;;;;;;3.72;2.20;;;;;;;27.19;22.13;98001.47;5063178;28;20039;-27
2021/03/30 10:19:05;;;;;;;5.63;2.05;;;;;;;27.16;22.27;98000.75;5064716;28;20024;-27
2021/03/30 10:21:35;;;;;;;10.65;2.50;;;;;;;27.09;22.03;97986.97;5066617;28;20032;-27
2021/03/30 10:24:12;;;;;;;3.88;2.10;;;;;;;27.08;22.02;97996.63;5068744;28;20038;-25
2021/03/30 10:26:37;;;;;;;7.03;2.40;;;;;;;27.05;22.10;97996.78;5069205;28;20067;-26
2021/03/30 10:29:20;;;;;;;3.90;2.05;;;;;;;27.00;22.14;97998.69;5068062;28;20213;-27
2021/03/30 10:31:58;;;;;;;6.22;2.05;;;;;;;26.96;22.27;97997.13;5064051;28;20089;-25
2021/03/30 10:34:28;;;;;;;5.03;2.47;;;;;;;26.92;22.42;97996.34;5065072;28;20031;-25
2021/03/30 10:36:55;;;;;;;4.35;2.10;;;;;;;26.88;22.49;97990.34;5068233;28;20096;-26
2021/03/30 10:39:40;;;;;;;3.67;2.10;;;;;;;26.86;22.44;97991.34;5068452;28;20631;-26
2021/03/30 10:42:14;;;;;;;4.32;2.28;;;;;;;26.81;22.55;97988.03;5068428;28;20031;-24
2021/03/30 10:44:48;;;;;;;6.82;2.13;;;;;;;26.78;22.48;97989.00;5067374;28;20735;-31
2021/03/30 10:47:21;;;;;;;6.05;2.10;;;;;;;26.74;22.27;97982.97;5067895;28;20399;-27
2021/03/30 10:49:48;;;;;;;5.00;2.20;;;;;;;26.71;22.51;97983.13;5062137;28;20235;-25
2021/03/30 10:52:17;;;;;;;4.00;2.08;;;;;;;26.69;22.64;97973.56;5065593;28;20406;-29
2021/03/30 10:54:43;;;;;;;4.10;2.10;;;;;;;26.65;22.70;97979.88;5071539;28;20039;-26
2021/03/30 10:57:12;;;;;;;3.22;2.00;;;;;;;26.62;22.67;97975.59;5065978;28;20034;-26
2021/03/30 10:59:38;;;;;;;7.75;2.10;;;;;;;26.59;22.87;97979.16;5066644;28;20677;-25
2021/03/30 11:02:03;;;;;;;5.90;2.20;;;;;;;26.56;22.97;97965.28;5056943;28;20044;-29
2021/03/30 11:04:29;;;;;;;6.65;2.10;;;;;;;26.54;23.03;97972.38;5060495;28;20115;-28
2021/03/30 11:06:54;;;;;;;6.63;1.83;;;;;;;26.52;23.37;97967.19;5061910;28;20487;-27
2021/03/30 11:09:20;;;;;;;3.70;1.90;;;;;;;26.50;23.03;97969.00;5064696;28;20047;-26
2021/03/30 11:11:45;;;;;;;3.83;1.70;;;;;;;26.50;22.94;97961.09;5063011;28;20491;-30
2021/03/30 11:14:11;;;;;;;5.78;2.00;;;;;;;26.48;23.08;97965.59;5068459;28;20044;-23
2021/03/30 11:16:36;;;;;;;4.25;1.70;;;;;;;26.48;23.19;97960.31;5053198;28;20035;-28
2021/03/30 11:19:03;;;;;;;5.70;1.85;;;;;;;26.47;23.17;97951.56;5055726;28;20495;-28
2021/03/30 11:21:28;;;;;;;4.05;1.77;;;;;;;26.48;23.29;97955.06;5059661;28;20035;-26
2021/03/30 11:24:00;;;;;;;6.35;1.90;;;;;;;26.47;23.17;97955.97;5064411;28;20407;-29
2021/03/30 11:26:25;;;;;;;4.95;1.77;;;;;;;26.46;23.25;97954.25;5053567;28;20364;-27
2021/03/30 11:28:51;;;;;;;4.82;1.67;;;;;;;26.45;23.20;97955.16;5061390;28;20063;-28
2021/03/30 11:31:41;;;;;;;3.47;1.45;;;;;;;26.44;23.40;97954.34;5062186;28;20613;-27
2021/03/30 11:34:15;;;;;;;5.40;1.80;;;;;;;26.43;23.38;97944.72;5071037;28;20273;-27
2021/03/30 11:36:42;;;;;;;3.30;1.50;;;;;;;26.43;23.50;97943.88;5069026;28;20078;-27